Time;durP1;ratioP1;P1;durP2;ratioP2;P2;SDS_P1;SDS_P2;PMS_P1;PMS_P2;Temp;Humidity;BMP_temperature;BMP_pressure;BME280_temperature;BME280_humidity;BME280_pressure;Samples;Min_cycle;Max_cycle;Signal;HPM_P1;HPM_P2
2022/07/27 00:02:19;;;;;;;14.50;7.55;;;29.20;82.70;;;;;;5073264;28;20119;-72
2022/07/27 00:04:45;;;;;;;14.60;7.53;;;29.20;82.70;;;;;;5073144;28;20099;-77
2022/07/27 00:07:10;;;;;;;18.75;7.88;;;29.20;83.20;;;;;;5073258;28;20396;-72
2022/07/27 00:09:36;;;;;;;18.70;7.68;;;29.20;83.50;;;;;;5073398;28;20082;-72
2022/07/27 00:12:02;;;;;;;15.77;8.32;;;29.10;82.10;;;;;;5073210;28;20420;-74
2022/07/27 00:14:28;;;;;;;20.40;8.70;;;29.10;83.10;;;;;;5073254;28;20060;-72
2022/07/27 00:16:53;;;;;;;18.58;7.93;;;29.10;84.30;;;;;;5073112;28;20063;-76
2022/07/27 00:19:19;;;;;;;18.25;7.72;;;29.10;84.00;;;;;;5073306;28;20386;-70
2022/07/27 00:21:45;;;;;;;19.73;8.45;;;29.10;84.60;;;;;;5073231;28;20032;-74
2022/07/27 00:24:11;;;;;;;19.60;8.68;;;29.10;84.80;;;;;;5073248;28;20389;-73
2022/07/27 00:26:36;;;;;;;15.98;7.97;;;29.10;84.70;;;;;;5073317;28;20120;-75
2022/07/27 00:29:02;;;;;;;15.60;8.15;;;29.00;84.90;;;;;;5055113;28;20104;-70
2022/07/27 00:31:28;;;;;;;20.33;8.48;;;29.00;84.80;;;;;;5072979;28;20036;-70
2022/07/27 00:33:54;;;;;;;23.05;8.10;;;29.10;85.00;;;;;;5072280;28;20028;-72
2022/07/27 00:36:20;;;;;;;18.30;8.20;;;29.00;84.10;;;;;;5072799;28;20041;-71
2022/07/27 00:38:45;;;;;;;17.02;8.88;;;29.10;83.50;;;;;;5073057;28;20024;-70
2022/07/27 00:41:11;;;;;;;19.25;7.88;;;29.10;84.20;;;;;;5072662;28;20029;-72
2022/07/27 00:43:57;;;;;;;16.15;7.65;;;29.10;83.90;;;;;;5072108;28;20043;-70
2022/07/27 00:46:25;;;;;;;18.88;8.15;;;29.10;83.30;;;;;;5073016;28;20035;-69
2022/07/27 00:48:51;;;;;;;19.10;8.27;;;29.20;83.00;;;;;;5072753;28;20029;-69
2022/07/27 00:51:18;;;;;;;14.77;7.15;;;29.20;83.20;;;;;;5054650;28;20166;-69
2022/07/27 00:53:45;;;;;;;15.07;6.88;;;29.20;82.20;;;;;;5072572;28;20028;-69
2022/07/27 00:56:11;;;;;;;14.45;7.78;;;29.20;82.20;;;;;;5072201;28;20517;-70
2022/07/27 00:58:37;;;;;;;16.77;7.55;;;29.20;82.40;;;;;;5072579;28;20508;-68
2022/07/27 01:01:04;;;;;;;22.30;8.27;;;29.20;82.60;;;;;;5072436;28;20444;-68
2022/07/27 01:03:29;;;;;;;18.25;8.13;;;29.10;83.10;;;;;;5072319;28;20071;-68
2022/07/27 01:05:56;;;;;;;16.35;7.60;;;29.10;83.60;;;;;;5072443;28;20063;-68
2022/07/27 01:08:22;;;;;;;14.38;7.13;;;29.10;83.30;;;;;;5072419;28;20478;-69
2022/07/27 01:10:49;;;;;;;17.23;7.45;;;29.10;83.30;;;;;;5072465;28;20020;-69
2022/07/27 01:13:15;;;;;;;24.83;8.45;;;29.10;84.10;;;;;;5072602;28;20107;-69
2022/07/27 01:15:44;;;;;;;16.58;8.60;;;29.10;84.50;;;;;;5072299;28;20055;-69
2022/07/27 01:18:11;;;;;;;18.50;7.80;;;29.00;84.70;;;;;;5072522;28;20036;-69
2022/07/27 01:20:39;;;;;;;25.38;7.97;;;29.10;84.60;;;;;;5072400;28;20024;-69
2022/07/27 01:23:05;;;;;;;23.38;8.60;;;29.10;84.80;;;;;;5072266;28;20486;-70
2022/07/27 01:25:32;;;;;;;20.42;8.07;;;29.00;84.70;;;;;;5072583;28;20115;-70
2022/07/27 01:27:58;;;;;;;16.42;7.60;;;29.00;85.00;;;;;;5073179;28;20439;-68
2022/07/27 01:30:27;;;;;;;19.65;8.00;;;29.00;84.90;;;;;;5073938;28;20021;-68
2022/07/27 01:33:03;;;;;;;13.32;7.22;;;29.00;85.80;;;;;;5072909;28;20427;-72
2022/07/27 01:35:29;;;;;;;19.50;8.00;;;29.00;84.80;;;;;;5072183;28;20474;-75
2022/07/27 01:37:56;;;;;;;16.75;8.52;;;29.10;84.40;;;;;;5072136;28;20404;-70
2022/07/27 01:40:22;;;;;;;19.10;8.68;;;29.10;83.90;;;;;;5054242;28;20158;-70
2022/07/27 01:42:47;;;;;;;19.48;8.23;;;29.10;84.40;;;;;;5072127;28;20116;-72
2022/07/27 01:45:13;;;;;;;17.00;7.63;;;29.10;84.50;;;;;;5073953;28;20027;-71
2022/07/27 01:47:39;;;;;;;20.20;7.90;;;29.00;84.80;;;;;;5057920;28;20066;-71
2022/07/27 01:50:07;;;;;;;16.90;8.15;;;29.00;85.30;;;;;;5075639;28;20070;-72
2022/07/27 01:52:33;;;;;;;15.25;7.35;;;28.90;86.00;;;;;;5075661;28;20036;-70
2022/07/27 01:54:59;;;;;;;13.57;7.85;;;28.90;85.10;;;;;;5075775;28;20025;-70
2022/07/27 01:57:24;;;;;;;22.15;8.40;;;28.90;84.80;;;;;;5075538;28;20102;-72
2022/07/27 01:59:52;;;;;;;12.50;7.43;;;29.00;84.80;;;;;;5057710;28;20477;-70
2022/07/27 02:02:18;;;;;;;15.45;7.85;;;29.00;84.10;;;;;;5075580;28;20094;-69
2022/07/27 02:04:44;;;;;;;17.58;7.63;;;29.00;84.40;;;;;;5075477;28;20025;-72
2022/07/27 02:07:10;;;;;;;11.73;7.38;;;29.00;84.50;;;;;;5075635;28;20035;-71
2022/07/27 02:09:36;;;;;;;13.38;7.88;;;29.00;84.40;;;;;;5075649;28;20477;-73
2022/07/27 02:14:45;;;;;;;17.45;7.97;;;29.00;85.20;;;;;;5075640;28;20373;-75
2022/07/27 02:17:11;;;;;;;17.65;8.25;;;28.90;85.50;;;;;;5075422;28;20029;-71
2022/07/27 02:19:37;;;;;;;19.73;8.10;;;29.00;84.80;;;;;;5075217;28;20056;-69
2022/07/27 02:22:03;;;;;;;18.02;8.50;;;28.90;85.20;;;;;;5075065;28;20043;-70
2022/07/27 02:24:28;;;;;;;18.20;8.30;;;28.90;85.40;;;;;;5075255;28;20256;-74
2022/07/27 02:26:54;;;;;;;18.70;8.38;;;28.90;85.10;;;;;;5075005;28;20089;-69
2022/07/27 02:29:20;;;;;;;16.85;8.18;;;28.90;85.20;;;;;;5075170;28;20020;-70
2022/07/27 02:31:46;;;;;;;16.02;8.25;;;28.90;85.30;;;;;;5075109;28;20500;-69
2022/07/27 02:34:11;;;;;;;18.35;8.38;;;28.90;85.50;;;;;;5056878;28;20020;-69
2022/07/27 02:36:37;;;;;;;19.92;9.38;;;28.90;85.00;;;;;;5074840;28;20020;-69
2022/07/27 02:39:03;;;;;;;16.42;7.97;;;28.90;85.70;;;;;;5074720;28;20074;-69
2022/07/27 02:41:29;;;;;;;17.10;8.15;;;28.80;85.50;;;;;;5074741;28;20031;-70
2022/07/27 02:43:54;;;;;;;14.70;7.75;;;28.80;85.90;;;;;;5074946;28;20040;-70
2022/07/27 02:46:20;;;;;;;15.52;8.30;;;28.80;85.60;;;;;;5074931;28;20405;-70
2022/07/27 02:48:46;;;;;;;18.00;8.05;;;28.80;85.90;;;;;;5074941;28;20044;-71
2022/07/27 02:51:13;;;;;;;16.23;8.30;;;28.70;85.90;;;;;;5074686;28;20013;-70
2022/07/27 02:53:39;;;;;;;17.10;8.30;;;28.60;86.10;;;;;;5074728;28;20013;-70
2022/07/27 02:56:05;;;;;;;15.55;8.05;;;28.60;86.30;;;;;;5073910;28;20401;-69
2022/07/27 02:58:31;;;;;;;20.35;9.15;;;28.60;85.80;;;;;;5074605;28;20485;-70
2022/07/27 03:00:57;;;;;;;17.40;8.48;;;28.60;86.00;;;;;;5074484;28;20035;-70
2022/07/27 03:03:22;;;;;;;18.23;9.25;;;28.60;85.80;;;;;;5074555;28;20052;-70
2022/07/27 03:05:48;;;;;;;17.25;8.77;;;28.70;86.40;;;;;;5074641;28;20031;-72
2022/07/27 03:08:14;;;;;;;18.55;8.32;;;28.60;86.70;;;;;;5074313;28;20027;-70
2022/07/27 03:10:40;;;;;;;17.38;9.43;;;28.60;87.00;;;;;;5074341;28;20078;-72
2022/07/27 03:13:06;;;;;;;25.33;8.82;;;28.60;87.40;;;;;;5074293;28;20048;-69
2022/07/27 03:15:33;;;;;;;13.25;7.70;;;28.60;87.70;;;;;;5074009;28;20032;-68
2022/07/27 03:18:00;;;;;;;17.83;8.68;;;28.60;87.10;;;;;;5073993;28;20028;-69
2022/07/27 03:20:25;;;;;;;14.35;8.75;;;28.60;87.10;;;;;;5056278;28;20032;-69
2022/07/27 03:22:53;;;;;;;16.15;9.02;;;28.60;87.70;;;;;;5074031;28;20385;-69
2022/07/27 03:25:18;;;;;;;16.95;9.00;;;28.60;87.30;;;;;;5073976;28;20146;-69
2022/07/27 03:27:44;;;;;;;19.27;8.85;;;28.60;87.40;;;;;;5073952;28;20025;-69
2022/07/27 03:30:10;;;;;;;17.08;8.35;;;28.50;87.00;;;;;;5055910;28;20035;-69
2022/07/27 03:32:36;;;;;;;15.30;8.90;;;28.50;87.40;;;;;;5073889;28;20094;-69
2022/07/27 03:35:02;;;;;;;14.93;8.73;;;28.50;87.80;;;;;;5073684;28;20029;-69
2022/07/27 03:37:28;;;;;;;17.15;9.00;;;28.50;87.80;;;;;;5055712;28;20070;-68
2022/07/27 03:39:53;;;;;;;17.30;7.82;;;28.50;87.90;;;;;;5073666;28;20024;-68
2022/07/27 03:42:19;;;;;;;21.27;7.97;;;28.40;88.50;;;;;;5073608;28;20036;-69
2022/07/27 03:44:45;;;;;;;13.32;7.50;;;28.50;88.60;;;;;;5073649;28;20484;-69
2022/07/27 03:47:10;;;;;;;19.63;8.77;;;28.40;88.90;;;;;;5073905;28;20024;-68
2022/07/27 03:49:36;;;;;;;21.33;8.82;;;28.50;89.20;;;;;;5073949;28;20031;-69
2022/07/27 03:52:02;;;;;;;18.67;8.45;;;28.40;89.30;;;;;;5074054;28;20012;-69
2022/07/27 03:54:28;;;;;;;19.30;9.43;;;28.40;89.60;;;;;;5073735;28;20031;-70
2022/07/27 03:56:54;;;;;;;18.23;8.38;;;28.40;90.00;;;;;;5086424;22;20053;-73
2022/07/27 03:59:19;;;;;;;18.58;7.97;;;28.40;89.80;;;;;;5073608;28;20056;-77
2022/07/27 04:01:46;;;;;;;17.50;7.45;;;28.50;89.90;;;;;;5072455;28;20043;-72
2022/07/27 04:04:12;;;;;;;15.32;7.80;;;28.50;89.00;;;;;;5073585;28;20032;-75
2022/07/27 04:06:38;;;;;;;20.23;8.55;;;28.50;89.30;;;;;;5072214;28;20028;-76
2022/07/27 04:09:05;;;;;;;17.65;8.23;;;28.50;89.20;;;;;;5072478;28;20031;-71
2022/07/27 04:11:30;;;;;;;18.98;8.15;;;28.50;89.80;;;;;;5072219;28;20029;-71
2022/07/27 04:13:58;;;;;;;17.95;7.80;;;28.50;89.10;;;;;;5073274;28;20500;-69
2022/07/27 04:16:24;;;;;;;21.00;8.52;;;28.50;88.70;;;;;;5072963;28;20036;-68
2022/07/27 04:18:52;;;;;;;20.45;9.10;;;28.60;88.80;;;;;;5073385;28;20469;-69
2022/07/27 04:21:18;;;;;;;23.08;8.48;;;28.50;89.50;;;;;;5073156;28;20028;-69
2022/07/27 04:23:44;;;;;;;15.15;7.97;;;28.50;89.00;;;;;;5073044;28;20040;-69
2022/07/27 04:26:09;;;;;;;17.33;8.02;;;28.50;89.40;;;;;;5054945;28;20322;-68
2022/07/27 04:28:35;;;;;;;17.65;7.45;;;28.50;88.70;;;;;;5072858;28;20384;-68
2022/07/27 04:31:01;;;;;;;20.35;8.80;;;28.50;88.90;;;;;;5073007;28;20422;-69
2022/07/27 04:33:27;;;;;;;16.70;8.32;;;28.50;89.10;;;;;;5071641;28;20113;-71
2022/07/27 04:35:52;;;;;;;17.77;7.88;;;28.50;89.20;;;;;;5072634;28;20028;-71
2022/07/27 04:38:18;;;;;;;15.32;8.35;;;28.50;88.90;;;;;;5072814;28;20033;-72
2022/07/27 04:40:44;;;;;;;18.25;8.20;;;28.50;89.00;;;;;;5072852;28;20103;-69
2022/07/27 04:43:09;;;;;;;17.55;8.70;;;28.50;89.20;;;;;;5072510;28;20035;-72
2022/07/27 04:45:35;;;;;;;20.75;8.45;;;28.50;89.10;;;;;;5072610;28;20029;-69
2022/07/27 04:48:06;;;;;;;18.10;8.40;;;28.50;89.30;;;;;;5072818;28;20048;-72
2022/07/27 04:50:31;;;;;;;19.30;7.90;;;28.60;88.90;;;;;;5071498;28;20021;-68
2022/07/27 04:52:59;;;;;;;16.27;7.88;;;28.60;89.10;;;;;;5072164;28;20025;-72
2022/07/27 04:55:24;;;;;;;22.77;7.50;;;28.60;89.50;;;;;;5072306;28;20062;-68
2022/07/27 04:57:50;;;;;;;20.00;7.90;;;28.60;89.00;;;;;;5072310;28;20056;-68
2022/07/27 05:00:16;;;;;;;22.77;7.85;;;28.70;88.80;;;;;;5072791;28;20032;-69
2022/07/27 05:02:42;;;;;;;26.38;8.02;;;28.70;88.70;;;;;;5072649;28;20047;-71
2022/07/27 05:05:09;;;;;;;15.70;7.53;;;28.70;88.30;;;;;;5072580;28;20071;-72
2022/07/27 05:07:35;;;;;;;26.60;8.70;;;28.70;88.00;;;;;;5072765;28;20024;-72
2022/07/27 05:10:01;;;;;;;25.27;8.68;;;28.80;88.30;;;;;;5073153;28;20533;-68
2022/07/27 05:12:30;;;;;;;16.52;7.43;;;28.80;88.10;;;;;;5075457;28;20021;-70
2022/07/27 05:14:57;;;;;;;13.93;7.43;;;28.80;88.00;;;;;;5073006;28;20045;-74
2022/07/27 05:17:22;;;;;;;22.88;8.50;;;28.90;87.80;;;;;;5072928;28;20057;-75
2022/07/27 05:19:49;;;;;;;18.05;7.82;;;28.90;87.50;;;;;;5074103;28;20029;-75
2022/07/27 05:22:16;;;;;;;13.85;7.25;;;29.10;87.80;;;;;;5076613;28;20139;-71
2022/07/27 05:24:41;;;;;;;15.60;6.88;;;29.20;86.10;;;;;;5076403;28;20092;-71
2022/07/27 05:27:07;;;;;;;21.90;7.53;;;29.40;85.40;;;;;;5077406;28;20036;-73
2022/07/27 05:29:33;;;;;;;18.98;7.13;;;29.70;84.50;;;;;;5076709;28;20032;-75
2022/07/27 05:31:58;;;;;;;17.33;7.65;;;29.90;83.50;;;;;;5076278;28;20404;-70
2022/07/27 05:34:24;;;;;;;18.65;7.05;;;30.20;82.50;;;;;;5075872;28;20142;-71
2022/07/27 05:36:53;;;;;;;17.48;7.22;;;30.50;81.50;;;;;;5075915;28;20044;-74
2022/07/27 05:39:18;;;;;;;23.88;6.97;;;30.80;79.40;;;;;;5076223;28;20485;-70
2022/07/27 05:41:44;;;;;;;14.63;5.88;;;31.00;79.20;;;;;;5076179;28;20028;-72
2022/07/27 05:44:10;;;;;;;18.42;6.57;;;31.20;77.60;;;;;;5074308;28;20455;-72
2022/07/27 05:46:35;;;;;;;15.63;6.22;;;31.40;76.80;;;;;;5076049;28;20024;-74
2022/07/27 05:49:02;;;;;;;15.15;5.68;;;31.60;75.80;;;;;;5074617;28;20031;-74
2022/07/27 05:51:29;;;;;;;15.45;5.40;;;31.80;75.30;;;;;;5062762;28;20060;-69
2022/07/27 05:53:55;;;;;;;18.52;5.75;;;32.10;74.00;;;;;;5055811;28;20039;-73
2022/07/27 05:56:22;;;;;;;15.40;5.45;;;32.30;73.10;;;;;;5054227;28;20045;-77
2022/07/27 05:58:48;;;;;;;18.77;6.07;;;32.50;72.10;;;;;;5055711;28;20033;-76
2022/07/27 06:01:14;;;;;;;20.10;5.85;;;32.70;71.40;;;;;;5055603;28;20020;-72
2022/07/27 06:03:39;;;;;;;13.55;5.00;;;32.90;70.20;;;;;;5055357;28;20037;-74
2022/07/27 06:08:49;;;;;;;15.25;5.00;;;33.30;68.60;;;;;;5054562;28;20429;-77
2022/07/27 06:11:15;;;;;;;16.77;5.22;;;33.50;67.20;;;;;;5055520;28;20036;-75
2022/07/27 06:13:42;;;;;;;12.77;4.88;;;33.60;66.40;;;;;;5055655;28;20096;-73
2022/07/27 06:16:09;;;;;;;18.80;4.90;;;33.70;65.20;;;;;;5055284;28;20029;-75
2022/07/27 06:18:35;;;;;;;14.60;4.38;;;33.80;65.00;;;;;;5054741;28;20057;-76
2022/07/27 06:21:01;;;;;;;17.67;4.22;;;33.90;64.70;;;;;;5069055;28;20055;-72
2022/07/27 06:23:30;;;;;;;16.67;4.78;;;34.10;64.10;;;;;;5076740;28;20422;-71
2022/07/27 06:25:56;;;;;;;13.63;5.28;;;34.10;63.10;;;;;;5075684;28;20056;-71
2022/07/27 06:28:22;;;;;;;11.95;4.85;;;34.20;63.20;;;;;;5075354;28;20035;-69
2022/07/27 06:30:49;;;;;;;17.75;5.55;;;34.30;62.90;;;;;;5074506;28;20039;-73
2022/07/27 06:33:15;;;;;;;16.33;4.75;;;34.30;62.80;;;;;;5069377;28;20021;-74
2022/07/27 06:35:41;;;;;;;12.10;4.50;;;34.30;62.40;;;;;;5064818;28;20035;-71
2022/07/27 06:38:07;;;;;;;15.35;5.13;;;34.40;61.90;;;;;;5064448;28;20025;-72
2022/07/27 06:40:34;;;;;;;14.13;5.00;;;34.50;61.10;;;;;;5062809;28;20106;-73
2022/07/27 06:42:59;;;;;;;18.95;5.47;;;34.60;60.60;;;;;;5065926;28;20028;-74
2022/07/27 06:45:26;;;;;;;13.40;4.75;;;34.70;59.70;;;;;;5064624;28;20048;-73
2022/07/27 06:47:51;;;;;;;16.08;4.68;;;34.90;59.70;;;;;;5071703;28;20106;-71
2022/07/27 06:50:19;;;;;;;13.02;4.35;;;34.80;59.20;;;;;;5071477;28;20044;-75
2022/07/27 06:52:45;;;;;;;17.90;4.43;;;34.90;59.30;;;;;;5071292;28;20021;-72
2022/07/27 06:55:12;;;;;;;12.60;4.07;;;35.00;59.20;;;;;;5064091;28;20028;-72
2022/07/27 06:57:38;;;;;;;11.52;4.07;;;35.00;58.70;;;;;;5074638;28;20052;-72
2022/07/27 07:00:10;;;;;;;14.63;4.47;;;35.10;58.30;;;;;;5075006;28;20438;-78
2022/07/27 07:02:36;;;;;;;11.38;4.28;;;35.10;57.30;;;;;;5074963;28;20036;-72
2022/07/27 07:05:02;;;;;;;13.30;4.78;;;35.00;57.40;;;;;;5076939;28;20031;-74
2022/07/27 07:07:29;;;;;;;14.48;4.22;;;35.10;57.10;;;;;;5078402;28;20454;-71
2022/07/27 07:09:55;;;;;;;16.45;4.28;;;35.20;56.70;;;;;;5074909;28;20480;-76
2022/07/27 07:12:20;;;;;;;12.18;4.18;;;35.30;56.50;;;;;;5073187;28;20375;-72
2022/07/27 07:14:48;;;;;;;13.00;4.47;;;35.30;56.00;;;;;;5074389;28;20031;-72
2022/07/27 07:17:15;;;;;;;12.48;4.03;;;35.40;55.00;;;;;;5074797;28;20016;-71
2022/07/27 07:19:41;;;;;;;10.32;3.92;;;35.40;53.90;;;;;;5074952;28;20059;-75
2022/07/27 07:22:13;;;;;;;13.75;4.38;;;35.50;54.20;;;;;;5074261;28;20060;-74
2022/07/27 07:24:39;;;;;;;29.08;9.13;;;35.50;53.20;;;;;;5059476;28;20036;-73
2022/07/27 07:27:06;;;;;;;37.83;11.43;;;35.50;53.00;;;;;;5036552;28;20041;-73
2022/07/27 07:29:32;;;;;;;19.98;7.65;;;35.50;52.20;;;;;;5054443;28;20036;-76
2022/07/27 07:31:59;;;;;;;17.83;6.18;;;35.40;52.50;;;;;;5054228;28;20029;-77
2022/07/27 07:34:24;;;;;;;14.52;4.97;;;35.40;52.20;;;;;;5054239;28;20031;-70
2022/07/27 07:36:50;;;;;;;19.63;6.63;;;35.40;53.00;;;;;;5053801;28;20028;-76
2022/07/27 07:39:16;;;;;;;20.67;6.93;;;35.50;52.80;;;;;;5055324;28;20386;-81
2022/07/27 07:41:41;;;;;;;26.95;8.32;;;35.40;51.80;;;;;;5064517;28;20044;-82
2022/07/27 07:44:08;;;;;;;28.80;9.25;;;35.40;51.60;;;;;;5084140;28;20395;-76
2022/07/27 07:46:36;;;;;;;28.38;10.55;;;35.20;51.20;;;;;;5083269;28;20070;-72
2022/07/27 07:49:03;;;;;;;24.27;8.55;;;35.20;51.10;;;;;;5076687;28;20096;-81
2022/07/27 07:51:30;;;;;;;14.85;5.15;;;35.10;51.20;;;;;;5076074;28;20074;-81
2022/07/27 07:53:58;;;;;;;14.43;5.40;;;35.10;51.50;;;;;;5074255;28;20345;-78
2022/07/27 07:56:23;;;;;;;11.50;4.53;;;35.00;51.90;;;;;;5074896;28;20086;-73
2022/07/27 07:58:49;;;;;;;26.85;7.47;;;35.00;51.60;;;;;;5074152;28;20469;-72
2022/07/27 08:01:15;;;;;;;16.63;6.57;;;34.90;51.40;;;;;;5072724;28;20052;-77
2022/07/27 08:03:42;;;;;;;16.02;5.60;;;34.90;51.10;;;;;;5071337;28;20469;-73
2022/07/27 08:06:09;;;;;;;19.23;6.78;;;34.90;50.90;;;;;;5073600;28;20067;-73
2022/07/27 08:08:35;;;;;;;16.65;6.85;;;34.80;51.00;;;;;;5072383;28;20357;-74
2022/07/27 08:11:01;;;;;;;18.33;5.03;;;34.80;51.20;;;;;;5073122;28;20047;-73
2022/07/27 08:13:27;;;;;;;14.60;5.00;;;34.80;51.60;;;;;;5074282;28;20029;-75
2022/07/27 08:15:53;;;;;;;19.40;7.75;;;34.70;51.60;;;;;;5076038;28;20043;-79
2022/07/27 08:18:19;;;;;;;14.85;5.35;;;34.60;51.50;;;;;;5077347;28;20037;-76
2022/07/27 08:20:45;;;;;;;14.23;4.32;;;34.60;51.80;;;;;;5074914;28;20084;-79
2022/07/27 08:23:14;;;;;;;14.35;5.53;;;34.50;52.00;;;;;;5077932;28;20487;-75
2022/07/27 08:25:39;;;;;;;15.70;5.60;;;34.40;51.50;;;;;;5078815;28;20085;-79
2022/07/27 08:28:05;;;;;;;15.45;4.70;;;34.30;52.00;;;;;;5079966;28;20029;-79
2022/07/27 08:30:31;;;;;;;13.77;5.45;;;34.20;52.60;;;;;;5078471;28;20112;-84
2022/07/27 08:32:59;;;;;;;15.70;5.50;;;34.10;52.30;;;;;;5074520;28;20024;-85
2022/07/27 08:35:30;;;;;;;13.85;5.53;;;34.00;52.30;;;;;;5073458;28;20029;-84
2022/07/27 08:37:57;;;;;;;12.77;4.38;;;33.90;51.30;;;;;;5073860;28;20119;-72
2022/07/27 08:40:24;;;;;;;17.15;5.22;;;33.90;51.90;;;;;;5073627;28;20442;-71
2022/07/27 08:42:49;;;;;;;16.85;6.28;;;33.80;51.80;;;;;;5073306;28;20040;-72
2022/07/27 08:45:17;;;;;;;15.70;4.80;;;33.80;52.10;;;;;;5073673;28;20487;-74
2022/07/27 08:47:46;;;;;;;11.85;4.68;;;33.80;52.40;;;;;;5073366;28;20095;-71
2022/07/27 08:50:27;;;;;;;10.95;3.88;;;33.70;51.60;;;;;;5072824;28;20032;-71
2022/07/27 08:52:55;;;;;;;14.57;4.85;;;33.70;51.00;;;;;;5072789;28;20020;-71
2022/07/27 08:55:22;;;;;;;9.05;3.78;;;33.60;50.60;;;;;;5071748;28;20028;-71
2022/07/27 08:57:49;;;;;;;14.77;4.13;;;33.60;50.30;;;;;;5072525;28;20397;-72
2022/07/27 09:00:15;;;;;;;9.65;5.07;;;33.60;50.10;;;;;;5073098;28;20024;-70
2022/07/27 09:02:43;;;;;;;10.02;4.20;;;33.60;50.00;;;;;;5072821;28;20043;-72
2022/07/27 09:05:10;;;;;;;10.32;4.50;;;33.50;49.70;;;;;;5071357;28;20090;-70
2022/07/27 09:07:36;;;;;;;14.63;4.03;;;33.50;50.60;;;;;;5074235;28;20024;-73
2022/07/27 09:10:04;;;;;;;11.43;3.92;;;33.50;50.50;;;;;;5074219;28;20047;-74
2022/07/27 09:12:34;;;;;;;12.10;4.20;;;33.50;50.40;;;;;;5072952;28;20029;-76
2022/07/27 09:15:11;;;;;;;11.27;4.28;;;33.50;50.20;;;;;;5073541;28;20103;-78
2022/07/27 09:17:39;;;;;;;12.32;3.45;;;33.50;50.70;;;;;;5073871;28;20465;-83
2022/07/27 09:20:09;;;;;;;13.13;4.00;;;33.40;51.00;;;;;;5074080;28;20029;-81
2022/07/27 09:22:39;;;;;;;10.32;2.90;;;33.50;50.10;;;;;;5074887;28;20033;-78
2022/07/27 09:25:05;;;;;;;12.82;3.92;;;33.50;49.40;;;;;;5073095;28;20048;-76
2022/07/27 09:27:31;;;;;;;10.88;3.30;;;33.50;49.30;;;;;;5073378;28;20484;-72
2022/07/27 09:30:05;;;;;;;18.50;3.92;;;33.50;48.90;;;;;;5075761;28;20054;-81
2022/07/27 09:32:31;;;;;;;10.55;3.17;;;33.50;48.30;;;;;;5078389;28;20023;-81
2022/07/27 09:34:57;;;;;;;11.52;3.13;;;33.50;49.10;;;;;;5077915;28;20112;-82
2022/07/27 09:37:25;;;;;;;13.80;4.10;;;33.40;49.00;;;;;;5081399;28;20032;-81
2022/07/27 09:40:13;;;;;;;10.15;3.70;;;33.30;49.40;;;;;;5081554;28;20480;-81
2022/07/27 09:42:39;;;;;;;14.45;4.93;;;33.30;48.80;;;;;;5075696;28;20055;-79
2022/07/27 09:45:27;;;;;;;12.57;3.78;;;33.30;49.50;;;;;;5073538;28;20103;-83
2022/07/27 09:48:04;;;;;;;16.45;4.00;;;33.30;49.70;;;;;;5076280;28;20439;-70
2022/07/27 09:50:31;;;;;;;13.07;3.92;;;33.30;50.50;;;;;;5072882;28;20028;-70
2022/07/27 09:53:21;;;;;;;10.27;3.30;;;33.30;50.40;;;;;;5072133;28;20021;-80
2022/07/27 09:55:59;;;;;;;11.75;3.53;;;33.40;50.20;;;;;;5072603;28;20033;-71
2022/07/27 09:58:47;;;;;;;11.73;4.10;;;33.30;49.40;;;;;;5073514;28;20136;-72
2022/07/27 10:01:46;;;;;;;17.17;4.00;;;33.40;49.70;;;;;;5074665;28;20070;-69
2022/07/27 10:04:12;;;;;;;10.43;4.20;;;33.40;49.90;;;;;;5071520;28;20386;-76
2022/07/27 10:06:38;;;;;;;13.55;3.95;;;33.40;50.50;;;;;;5075521;28;20020;-71
2022/07/27 10:09:04;;;;;;;10.32;3.20;;;33.50;50.20;;;;;;5076957;28;20466;-71
2022/07/27 10:11:30;;;;;;;12.77;3.95;;;33.50;50.40;;;;;;5076581;28;20027;-73
2022/07/27 10:13:58;;;;;;;12.63;3.13;;;33.50;50.30;;;;;;5076266;28;20024;-74
2022/07/27 10:16:28;;;;;;;9.93;3.80;;;33.50;50.40;;;;;;5075927;28;20422;-77
2022/07/27 10:19:12;;;;;;;12.45;4.53;;;33.50;50.90;;;;;;5075686;28;20032;-71
2022/07/27 10:21:40;;;;;;;11.45;3.67;;;33.50;51.00;;;;;;5077049;28;20025;-72
2022/07/27 10:24:08;;;;;;;12.68;3.90;;;33.50;50.80;;;;;;5075075;28;20068;-78
2022/07/27 10:26:40;;;;;;;10.80;3.58;;;33.60;50.50;;;;;;5077022;28;20098;-74
2022/07/27 10:29:14;;;;;;;14.27;3.47;;;33.70;50.30;;;;;;5076370;28;20021;-72
2022/07/27 10:31:58;;;;;;;13.05;4.00;;;33.70;50.40;;;;;;5075593;28;20025;-71
2022/07/27 10:34:38;;;;;;;12.35;3.72;;;33.70;50.50;;;;;;5076144;28;20024;-71
2022/07/27 10:37:16;;;;;;;11.82;3.95;;;33.80;50.60;;;;;;5075744;28;20085;-72
2022/07/27 10:42:45;;;;;;;13.02;3.83;;;33.80;50.10;;;;;;5076439;28;20051;-73
2022/07/27 10:45:16;;;;;;;13.10;4.10;;;33.80;50.60;;;;;;5075459;28;20017;-84
2022/07/27 10:47:45;;;;;;;12.52;3.45;;;33.80;51.30;;;;;;5084361;28;20032;-82
2022/07/27 10:50:14;;;;;;;11.80;3.35;;;33.80;50.70;;;;;;5078582;28;20416;-82
2022/07/27 10:52:41;;;;;;;9.13;3.25;;;33.80;50.20;;;;;;5077836;28;20173;-77
2022/07/27 10:55:07;;;;;;;14.95;3.20;;;33.80;50.10;;;;;;5077297;28;20020;-72
2022/07/27 10:57:36;;;;;;;10.38;3.55;;;33.70;50.10;;;;;;5076355;28;20040;-73
2022/07/27 11:00:08;;;;;;;8.15;3.13;;;33.70;50.10;;;;;;5076073;28;20043;-72
2022/07/27 11:02:41;;;;;;;10.40;3.28;;;33.70;50.60;;;;;;5074812;28;20111;-71
2022/07/27 11:05:08;;;;;;;8.05;3.17;;;33.70;50.00;;;;;;5073677;28;20576;-74
2022/07/27 11:07:35;;;;;;;14.13;3.25;;;33.70;49.50;;;;;;5075634;28;20783;-80
2022/07/27 11:10:02;;;;;;;7.95;2.80;;;33.80;49.70;;;;;;5075735;28;20115;-70
2022/07/27 11:12:28;;;;;;;12.48;4.25;;;33.80;50.60;;;;;;5057671;28;20025;-71
2022/07/27 11:14:56;;;;;;;12.88;3.00;;;33.80;51.00;;;;;;5075147;28;20036;-71
2022/07/27 11:17:27;;;;;;;12.10;2.78;;;33.80;50.80;;;;;;5073134;28;20481;-72
2022/07/27 11:20:00;;;;;;;11.50;3.33;;;33.80;50.90;;;;;;5075092;28;20021;-73
2022/07/27 11:22:40;;;;;;;8.88;3.40;;;33.80;51.00;;;;;;5073341;28;20056;-71
2022/07/27 11:25:07;;;;;;;12.23;3.67;;;33.90;50.60;;;;;;5073210;28;20028;-71
2022/07/27 11:27:48;;;;;;;12.73;3.20;;;33.90;51.10;;;;;;5075009;28;20032;-71
2022/07/27 11:30:27;;;;;;;15.00;3.22;;;34.00;50.20;;;;;;5074993;28;20150;-72
2022/07/27 11:32:54;;;;;;;9.48;3.00;;;34.00;50.90;;;;;;5076339;28;20031;-82
2022/07/27 11:35:22;;;;;;;13.90;3.30;;;34.00;51.10;;;;;;5075241;28;20027;-81
2022/07/27 11:38:03;;;;;;;12.98;3.10;;;33.90;51.00;;;;;;5073615;28;20111;-82
2022/07/27 11:40:41;;;;;;;13.43;3.30;;;33.90;50.70;;;;;;5073630;28;20043;-72
2022/07/27 11:43:08;;;;;;;14.25;3.45;;;34.00;50.50;;;;;;5074855;28;20032;-77
2022/07/27 11:45:38;;;;;;;11.43;3.40;;;34.00;49.90;;;;;;5074834;28;20035;-76
2022/07/27 11:48:09;;;;;;;6.82;2.45;;;34.10;50.10;;;;;;5074935;28;20020;-73
2022/07/27 11:50:36;;;;;;;8.57;2.80;;;34.10;50.20;;;;;;5074242;28;20027;-75
2022/07/27 11:53:01;;;;;;;11.52;2.90;;;34.10;49.60;;;;;;5072525;28;20058;-72
2022/07/27 11:55:27;;;;;;;10.52;3.17;;;34.10;49.70;;;;;;5073380;28;20016;-71
2022/07/27 11:58:01;;;;;;;9.68;2.75;;;34.10;50.40;;;;;;5074166;28;20052;-74
2022/07/27 12:00:43;;;;;;;16.42;3.60;;;34.10;50.40;;;;;;5073813;28;20037;-72
2022/07/27 12:03:22;;;;;;;11.50;2.90;;;34.20;49.90;;;;;;5074465;28;20032;-79
2022/07/27 12:05:55;;;;;;;7.93;2.67;;;34.20;49.90;;;;;;5073885;28;20074;-79
2022/07/27 12:08:22;;;;;;;16.33;3.53;;;34.30;51.00;;;;;;5074325;28;20405;-79
2022/07/27 12:10:58;;;;;;;7.93;2.80;;;34.30;51.80;;;;;;5073665;28;20385;-80
2022/07/27 12:13:36;;;;;;;11.15;3.20;;;34.30;51.20;;;;;;5074375;28;20020;-83
2022/07/27 12:16:03;;;;;;;14.20;3.20;;;34.30;51.20;;;;;;5076037;28;20023;-72
2022/07/27 12:18:42;;;;;;;10.30;3.20;;;34.20;50.50;;;;;;5075972;28;20029;-75
2022/07/27 12:21:19;;;;;;;9.13;3.05;;;34.20;50.60;;;;;;5074152;28;20374;-76
2022/07/27 12:23:52;;;;;;;6.95;3.00;;;34.30;50.00;;;;;;5074618;28;20036;-77
2022/07/27 12:26:21;;;;;;;13.55;3.58;;;34.30;50.10;;;;;;5075128;28;20444;-76
2022/07/27 12:29:27;;;;;;;11.10;3.60;;;34.20;51.00;;;;;;5073458;28;20024;-77
2022/07/27 12:31:53;;;;;;;9.60;3.47;;;34.20;50.50;;;;;;5073153;28;20431;-78
2022/07/27 12:34:19;;;;;;;9.85;3.65;;;34.20;51.50;;;;;;5073842;28;20081;-82
2022/07/27 12:36:45;;;;;;;17.88;4.30;;;34.20;52.10;;;;;;5073761;28;20413;-77
2022/07/27 12:39:29;;;;;;;14.85;3.72;;;34.20;52.40;;;;;;5076097;28;20032;-75
2022/07/27 12:42:05;;;;;;;17.10;4.45;;;34.20;52.60;;;;;;5074580;28;20031;-81
2022/07/27 12:44:33;;;;;;;12.30;4.03;;;34.30;52.50;;;;;;5077217;28;20384;-71
2022/07/27 12:47:39;;;;;;;14.85;4.32;;;34.30;52.80;;;;;;5075208;28;20418;-84
2022/07/27 12:50:16;;;;;;;11.85;4.03;;;34.30;53.10;;;;;;5076544;28;20036;-84
2022/07/27 12:52:49;;;;;;;10.98;3.90;;;34.30;52.40;;;;;;5080951;28;20078;-71